sensor_id;sensor_type;location;lat;lon;timestamp;pressure;altitude;pressure_sealevel;temperature;humidity
37764;BME280;23602;51.084;7.090;2023-02-04T00:00:22;101637.44;;;6.14;100.00
37764;BME280;23602;51.084;7.090;2023-02-04T00:02:48;101649.38;;;6.20;100.00
37764;BME280;23602;51.084;7.090;2023-02-04T00:05:15;101660.16;;;6.18;100.00
37764;BME280;23602;51.084;7.090;2023-02-04T00:07:43;101650.09;;;6.12;100.00
37764;BME280;23602;51.084;7.090;2023-02-04T00:10:11;101662.84;;;6.18;100.00
37764;BME280;23602;51.084;7.090;2023-02-04T00:12:39;101664.41;;;6.11;100.00
37764;BME280;23602;51.084;7.090;2023-02-04T00:15:07;101667.34;;;6.08;100.00
37764;BME280;23602;51.084;7.090;2023-02-04T00:17:32;101663.84;;;6.08;100.00
37764;BME280;23602;51.084;7.090;2023-02-04T00:19:58;101675.22;;;6.10;100.00
37764;BME280;23602;51.084;7.090;2023-02-04T00:22:23;101670.75;;;6.01;100.00
37764;BME280;23602;51.084;7.090;2023-02-04T00:24:50;101650.41;;;6.00;100.00
37764;BME280;23602;51.084;7.090;2023-02-04T00:27:16;101664.84;;;6.07;100.00
37764;BME280;23602;51.084;7.090;2023-02-04T00:29:41;101678.44;;;6.13;100.00
37764;BME280;23602;51.084;7.090;2023-02-04T00:32:07;101684.22;;;6.09;100.00
37764;BME280;23602;51.084;7.090;2023-02-04T00:34:32;101676.91;;;6.11;100.00
37764;BME280;23602;51.084;7.090;2023-02-04T00:36:57;101659.09;;;6.02;100.00
37764;BME280;23602;51.084;7.090;2023-02-04T00:39:23;101658.41;;;6.00;100.00
37764;BME280;23602;51.084;7.090;2023-02-04T00:41:48;101663.59;;;6.01;100.00
37764;BME280;23602;51.084;7.090;2023-02-04T00:44:16;101660.75;;;6.03;100.00
37764;BME280;23602;51.084;7.090;2023-02-04T00:46:41;101670.47;;;6.04;100.00
37764;BME280;23602;51.084;7.090;2023-02-04T00:49:08;101651.50;;;5.88;100.00
37764;BME280;23602;51.084;7.090;2023-02-04T00:51:35;101685.50;;;6.05;100.00
37764;BME280;23602;51.084;7.090;2023-02-04T00:54:01;101677.91;;;6.00;100.00
37764;BME280;23602;51.084;7.090;2023-02-04T00:56:26;101668.22;;;5.99;100.00
37764;BME280;23602;51.084;7.090;2023-02-04T00:58:52;101666.25;;;6.01;100.00
37764;BME280;23602;51.084;7.090;2023-02-04T01:01:17;101652.50;;;5.96;100.00
37764;BME280;23602;51.084;7.090;2023-02-04T01:03:43;101652.09;;;5.91;100.00
37764;BME280;23602;51.084;7.090;2023-02-04T01:06:08;101674.41;;;6.00;100.00
37764;BME280;23602;51.084;7.090;2023-02-04T01:08:34;101649.84;;;5.87;100.00
37764;BME280;23602;51.084;7.090;2023-02-04T01:10:59;101656.84;;;5.88;100.00
37764;BME280;23602;51.084;7.090;2023-02-04T01:13:27;101659.81;;;5.94;100.00
37764;BME280;23602;51.084;7.090;2023-02-04T01:15:53;101677.91;;;6.00;100.00
37764;BME280;23602;51.084;7.090;2023-02-04T01:18:18;101669.06;;;5.90;100.00
37764;BME280;23602;51.084;7.090;2023-02-04T01:20:43;101687.63;;;5.92;100.00
37764;BME280;23602;51.084;7.090;2023-02-04T01:23:10;101703.44;;;6.03;100.00
37764;BME280;23602;51.084;7.090;2023-02-04T01:25:35;101690.41;;;5.90;100.00
37764;BME280;23602;51.084;7.090;2023-02-04T01:28:01;101685.38;;;5.87;100.00
37764;BME280;23602;51.084;7.090;2023-02-04T01:30:26;101717.22;;;5.98;100.00
37764;BME280;23602;51.084;7.090;2023-02-04T01:32:51;101709.81;;;5.92;100.00
37764;BME280;23602;51.084;7.090;2023-02-04T01:35:17;101695.44;;;5.84;100.00
37764;BME280;23602;51.084;7.090;2023-02-04T01:38:06;101709.63;;;5.84;100.00
37764;BME280;23602;51.084;7.090;2023-02-04T01:40:34;101702.50;;;5.85;100.00
37764;BME280;23602;51.084;7.090;2023-02-04T01:43:10;101696.00;;;5.78;100.00
37764;BME280;23602;51.084;7.090;2023-02-04T01:45:45;101719.75;;;5.90;100.00
37764;BME280;23602;51.084;7.090;2023-02-04T01:48:13;101726.78;;;5.91;100.00
37764;BME280;23602;51.084;7.090;2023-02-04T01:50:56;101717.50;;;5.76;100.00
37764;BME280;23602;51.084;7.090;2023-02-04T01:53:24;101744.75;;;5.89;100.00
37764;BME280;23602;51.084;7.090;2023-02-04T01:55:51;101762.75;;;5.87;100.00
37764;BME280;23602;51.084;7.090;2023-02-04T01:58:19;101754.13;;;5.84;100.00
37764;BME280;23602;51.084;7.090;2023-02-04T02:00:44;101741.19;;;5.69;100.00
37764;BME280;23602;51.084;7.090;2023-02-04T02:03:10;101759.75;;;5.81;100.00
37764;BME280;23602;51.084;7.090;2023-02-04T02:05:40;101766.78;;;5.82;100.00
37764;BME280;23602;51.084;7.090;2023-02-04T02:08:07;101764.22;;;5.70;100.00
37764;BME280;23602;51.084;7.090;2023-02-04T02:10:36;101754.56;;;5.79;100.00
37764;BME280;23602;51.084;7.090;2023-02-04T02:13:04;101747.94;;;5.73;100.00
37764;BME280;23602;51.084;7.090;2023-02-04T02:15:30;101756.91;;;5.72;100.00
37764;BME280;23602;51.084;7.090;2023-02-04T02:17:55;101761.88;;;5.77;100.00
37764;BME280;23602;51.084;7.090;2023-02-04T02:20:23;101772.22;;;5.80;100.00
37764;BME280;23602;51.084;7.090;2023-02-04T02:22:58;101769.72;;;5.79;100.00
37764;BME280;23602;51.084;7.090;2023-02-04T02:25:26;101765.34;;;5.78;100.00
37764;BME280;23602;51.084;7.090;2023-02-04T02:27:52;101771.69;;;5.77;100.00
37764;BME280;23602;51.084;7.090;2023-02-04T02:30:18;101759.75;;;5.71;100.00
37764;BME280;23602;51.084;7.090;2023-02-04T02:32:48;101780.38;;;5.79;100.00
37764;BME280;23602;51.084;7.090;2023-02-04T02:35:15;101785.56;;;5.80;100.00
37764;BME280;23602;51.084;7.090;2023-02-04T02:37:43;101760.84;;;5.68;100.00
37764;BME280;23602;51.084;7.090;2023-02-04T02:40:10;101780.81;;;5.74;100.00
37764;BME280;23602;51.084;7.090;2023-02-04T02:42:36;101789.50;;;5.76;100.00
37764;BME280;23602;51.084;7.090;2023-02-04T02:45:10;101786.25;;;5.72;100.00
37764;BME280;23602;51.084;7.090;2023-02-04T02:47:37;101804.81;;;5.74;100.00
37764;BME280;23602;51.084;7.090;2023-02-04T02:50:06;101798.75;;;5.72;100.00
37764;BME280;23602;51.084;7.090;2023-02-04T02:52:31;101812.81;;;5.74;100.00
37764;BME280;23602;51.084;7.090;2023-02-04T02:54:59;101800.72;;;5.70;100.00
37764;BME280;23602;51.084;7.090;2023-02-04T02:57:26;101801.56;;;5.70;100.00
37764;BME280;23602;51.084;7.090;2023-02-04T02:59:52;101790.75;;;5.62;100.00
37764;BME280;23602;51.084;7.090;2023-02-04T03:02:21;101786.25;;;5.63;100.00
37764;BME280;23602;51.084;7.090;2023-02-04T03:04:55;101802.69;;;5.68;100.00
37764;BME280;23602;51.084;7.090;2023-02-04T03:07:24;101801.56;;;5.70;100.00
37764;BME280;23602;51.084;7.090;2023-02-04T03:09:50;101803.13;;;5.73;100.00
37764;BME280;23602;51.084;7.090;2023-02-04T03:12:17;101801.13;;;5.65;100.00
37764;BME280;23602;51.084;7.090;2023-02-04T03:14:43;101821.94;;;5.71;100.00
37764;BME280;23602;51.084;7.090;2023-02-04T03:17:09;101806.88;;;5.61;100.00
37764;BME280;23602;51.084;7.090;2023-02-04T03:19:36;101826.84;;;5.66;100.00
37764;BME280;23602;51.084;7.090;2023-02-04T03:22:03;101833.84;;;5.67;100.00
37764;BME280;23602;51.084;7.090;2023-02-04T03:24:29;101825.56;;;5.61;100.00
37764;BME280;23602;51.084;7.090;2023-02-04T03:26:55;101838.47;;;5.65;100.00
37764;BME280;23602;51.084;7.090;2023-02-04T03:29:20;101853.22;;;5.69;100.00
37764;BME280;23602;51.084;7.090;2023-02-04T03:31:46;101852.50;;;5.67;100.00
37764;BME280;23602;51.084;7.090;2023-02-04T03:34:13;101858.84;;;5.66;100.00
37764;BME280;23602;51.084;7.090;2023-02-04T03:36:39;101856.44;;;5.63;100.00
37764;BME280;23602;51.084;7.090;2023-02-04T03:39:04;101857.97;;;5.56;100.00
37764;BME280;23602;51.084;7.090;2023-02-04T03:41:29;101857.13;;;5.56;100.00
37764;BME280;23602;51.084;7.090;2023-02-04T03:43:58;101859.09;;;5.54;100.00
37764;BME280;23602;51.084;7.090;2023-02-04T03:46:23;101852.91;;;5.53;100.00
37764;BME280;23602;51.084;7.090;2023-02-04T03:48:55;101851.19;;;5.52;100.00
37764;BME280;23602;51.084;7.090;2023-02-04T03:51:20;101848.53;;;5.52;100.00
37764;BME280;23602;51.084;7.090;2023-02-04T03:56:43;101863.84;;;5.50;100.00
37764;BME280;23602;51.084;7.090;2023-02-04T03:59:08;101861.16;;;5.50;100.00
37764;BME280;23602;51.084;7.090;2023-02-04T04:01:34;101861.16;;;5.50;100.00
37764;BME280;23602;51.084;7.090;2023-02-04T04:03:59;101865.38;;;5.53;100.00
37764;BME280;23602;51.084;7.090;2023-02-04T04:06:25;101859.34;;;5.51;100.00
37764;BME280;23602;51.084;7.090;2023-02-04T04:08:50;101862.97;;;5.50;100.00
37764;BME280;23602;51.084;7.090;2023-02-04T04:11:15;101864.69;;;5.51;100.00
37764;BME280;23602;51.084;7.090;2023-02-04T04:13:41;101864.69;;;5.51;100.00
37764;BME280;23602;51.084;7.090;2023-02-04T04:16:06;101870.97;;;5.50;100.00
37764;BME280;23602;51.084;7.090;2023-02-04T04:18:32;101870.88;;;5.51;100.00
37764;BME280;23602;51.084;7.090;2023-02-04T04:20:58;101869.16;;;5.50;100.00
37764;BME280;23602;51.084;7.090;2023-02-04T04:23:24;101868.19;;;5.51;100.00
37764;BME280;23602;51.084;7.090;2023-02-04T04:25:49;101872.78;;;5.49;100.00
37764;BME280;23602;51.084;7.090;2023-02-04T04:28:14;101875.59;;;5.48;100.00
37764;BME280;23602;51.084;7.090;2023-02-04T04:30:40;101880.78;;;5.49;100.00
37764;BME280;23602;51.084;7.090;2023-02-04T04:33:05;101888.78;;;5.49;100.00
37764;BME280;23602;51.084;7.090;2023-02-04T04:35:30;101895.13;;;5.48;100.00
37764;BME280;23602;51.084;7.090;2023-02-04T04:37:56;101899.47;;;5.49;100.00
37764;BME280;23602;51.084;7.090;2023-02-04T04:40:23;101905.78;;;5.48;100.00
37764;BME280;23602;51.084;7.090;2023-02-04T04:42:52;101911.13;;;5.48;100.00
37764;BME280;23602;51.084;7.090;2023-02-04T04:45:22;101910.00;;;5.51;100.00
37764;BME280;23602;51.084;7.090;2023-02-04T04:47:53;101918.97;;;5.50;100.00
37764;BME280;23602;51.084;7.090;2023-02-04T04:50:18;101916.31;;;5.50;100.00
37764;BME280;23602;51.084;7.090;2023-02-04T04:55:28;101914.63;;;5.49;100.00
37764;BME280;23602;51.084;7.090;2023-02-04T04:57:54;101913.78;;;5.48;100.00
37764;BME280;23602;51.084;7.090;2023-02-04T05:00:22;101919.81;;;5.50;100.00
37764;BME280;23602;51.084;7.090;2023-02-04T05:02:48;101915.59;;;5.48;100.00
37764;BME280;23602;51.084;7.090;2023-02-04T05:05:13;101923.88;;;5.45;100.00
37764;BME280;23602;51.084;7.090;2023-02-04T05:07:38;101934.53;;;5.45;100.00
37764;BME280;23602;51.084;7.090;2023-02-04T05:10:04;101922.03;;;5.45;100.00
37764;BME280;23602;51.084;7.090;2023-02-04T05:12:30;101921.09;;;5.46;100.00
37764;BME280;23602;51.084;7.090;2023-02-04T05:14:55;101926.41;;;5.46;100.00
37764;BME280;23602;51.084;7.090;2023-02-04T05:17:21;101928.94;;;5.48;100.00
37764;BME280;23602;51.084;7.090;2023-02-04T05:19:46;101930.63;;;5.49;100.00
37764;BME280;23602;51.084;7.090;2023-02-04T05:22:11;101935.97;;;5.49;100.00
37764;BME280;23602;51.084;7.090;2023-02-04T05:24:36;101942.13;;;5.49;100.00
37764;BME280;23602;51.084;7.090;2023-02-04T05:27:02;101935.13;;;5.48;100.00
37764;BME280;23602;51.084;7.090;2023-02-04T05:29:27;101944.66;;;5.51;100.00
37764;BME280;23602;51.084;7.090;2023-02-04T05:31:52;101944.53;;;5.52;100.00
37764;BME280;23602;51.084;7.090;2023-02-04T05:34:18;101948.19;;;5.51;100.00
37764;BME280;23602;51.084;7.090;2023-02-04T05:36:43;101946.34;;;5.52;100.00
37764;BME280;23602;51.084;7.090;2023-02-04T05:39:08;101948.03;;;5.53;100.00
37764;BME280;23602;51.084;7.090;2023-02-04T05:41:33;101964.03;;;5.53;100.00
37764;BME280;23602;51.084;7.090;2023-02-04T05:44:02;101949.16;;;5.50;100.00
37764;BME280;23602;51.084;7.090;2023-02-04T05:46:29;101948.91;;;5.53;100.00
37764;BME280;23602;51.084;7.090;2023-02-04T05:49:06;101970.94;;;5.55;100.00
37764;BME280;23602;51.084;7.090;2023-02-04T05:51:32;101963.19;;;5.52;100.00
37764;BME280;23602;51.084;7.090;2023-02-04T05:53:57;101964.63;;;5.56;100.00
37764;BME280;23602;51.084;7.090;2023-02-04T05:56:23;101968.13;;;5.57;100.00
37764;BME280;23602;51.084;7.090;2023-02-04T05:58:49;101969.97;;;5.56;100.00
37764;BME280;23602;51.084;7.090;2023-02-04T06:01:14;101970.69;;;5.58;100.00
37764;BME280;23602;51.084;7.090;2023-02-04T06:03:40;101985.56;;;5.61;100.00
37764;BME280;23602;51.084;7.090;2023-02-04T06:06:05;101987.38;;;5.60;100.00
37764;BME280;23602;51.084;7.090;2023-02-04T06:08:30;101981.47;;;5.57;100.00
37764;BME280;23602;51.084;7.090;2023-02-04T06:10:56;101985.41;;;5.62;100.00
37764;BME280;23602;51.084;7.090;2023-02-04T06:13:21;101991.75;;;5.61;100.00
37764;BME280;23602;51.084;7.090;2023-02-04T06:15:46;102000.47;;;5.63;100.00
37764;BME280;23602;51.084;7.090;2023-02-04T06:18:12;102002.28;;;5.63;100.00
37764;BME280;23602;51.084;7.090;2023-02-04T06:20:38;102001.31;;;5.64;100.00
37764;BME280;23602;51.084;7.090;2023-02-04T06:23:03;102004.94;;;5.63;100.00
37764;BME280;23602;51.084;7.090;2023-02-04T06:25:28;102006.75;;;5.62;100.00
37764;BME280;23602;51.084;7.090;2023-02-04T06:27:53;102011.38;;;5.60;100.00
37764;BME280;23602;51.084;7.090;2023-02-04T06:30:19;102019.38;;;5.60;100.00
37764;BME280;23602;51.084;7.090;2023-02-04T06:32:44;102021.91;;;5.62;100.00
37764;BME280;23602;51.084;7.090;2023-02-04T06:35:09;102027.38;;;5.60;100.00
37764;BME280;23602;51.084;7.090;2023-02-04T06:37:36;102033.69;;;5.59;100.00
37764;BME280;23602;51.084;7.090;2023-02-04T06:40:02;102028.34;;;5.59;100.00
37764;BME280;23602;51.084;7.090;2023-02-04T06:42:27;102024.00;;;5.58;100.00
37764;BME280;23602;51.084;7.090;2023-02-04T06:45:02;102026.69;;;5.58;100.00
37764;BME280;23602;51.084;7.090;2023-02-04T06:47:41;102027.63;;;5.57;100.00
37764;BME280;23602;51.084;7.090;2023-02-04T06:50:17;102032.25;;;5.55;100.00
37764;BME280;23602;51.084;7.090;2023-02-04T06:52:44;102030.84;;;5.51;100.00
37764;BME280;23602;51.084;7.090;2023-02-04T06:55:09;102037.00;;;5.52;100.00
37764;BME280;23602;51.084;7.090;2023-02-04T06:57:35;102027.19;;;5.52;100.00
37764;BME280;23602;51.084;7.090;2023-02-04T07:00:00;102026.34;;;5.52;100.00
37764;BME280;23602;51.084;7.090;2023-02-04T07:02:25;102027.44;;;5.49;100.00
37764;BME280;23602;51.084;7.090;2023-02-04T07:04:51;102029.28;;;5.49;100.00
37764;BME280;23602;51.084;7.090;2023-02-04T07:07:17;102038.97;;;5.50;100.00
37764;BME280;23602;51.084;7.090;2023-02-04T07:09:42;102035.59;;;5.48;100.00
37764;BME280;23602;51.084;7.090;2023-02-04T07:12:07;102031.50;;;5.44;100.00
37764;BME280;23602;51.084;7.090;2023-02-04T07:14:33;102043.63;;;5.37;100.00
37764;BME280;23602;51.084;7.090;2023-02-04T07:16:58;102043.56;;;5.27;100.00
37764;BME280;23602;51.084;7.090;2023-02-04T07:19:23;102049.56;;;5.20;100.00
37764;BME280;23602;51.084;7.090;2023-02-04T07:21:49;102056.69;;;5.19;100.00
37764;BME280;23602;51.084;7.090;2023-02-04T07:24:18;102061.09;;;5.09;100.00
37764;BME280;23602;51.084;7.090;2023-02-04T07:26:43;102068.84;;;5.12;100.00
37764;BME280;23602;51.084;7.090;2023-02-04T07:29:09;102073.06;;;5.15;100.00
37764;BME280;23602;51.084;7.090;2023-02-04T07:31:35;102068.47;;;5.17;100.00
37764;BME280;23602;51.084;7.090;2023-02-04T07:34:02;102077.91;;;5.21;100.00
37764;BME280;23602;51.084;7.090;2023-02-04T07:36:35;102080.56;;;5.21;100.00
37764;BME280;23602;51.084;7.090;2023-02-04T07:39:01;102089.28;;;5.23;100.00
37764;BME280;23602;51.084;7.090;2023-02-04T07:41:29;102093.38;;;5.27;100.00
37764;BME280;23602;51.084;7.090;2023-02-04T07:43:55;102094.69;;;5.32;100.00
37764;BME280;23602;51.084;7.090;2023-02-04T07:46:20;102101.19;;;5.39;100.00
37764;BME280;23602;51.084;7.090;2023-02-04T07:48:48;102106.16;;;5.44;100.00
37764;BME280;23602;51.084;7.090;2023-02-04T07:54:02;102105.50;;;5.51;100.00
37764;BME280;23602;51.084;7.090;2023-02-04T07:56:27;102109.59;;;5.55;100.00
37764;BME280;23602;51.084;7.090;2023-02-04T07:58:53;102112.88;;;5.59;100.00
37764;BME280;23602;51.084;7.090;2023-02-04T08:01:19;102115.13;;;5.63;100.00
37764;BME280;23602;51.084;7.090;2023-02-04T08:03:44;102110.38;;;5.67;100.00
37764;BME280;23602;51.084;7.090;2023-02-04T08:06:09;102116.44;;;5.69;100.00
37764;BME280;23602;51.084;7.090;2023-02-04T08:08:35;102119.69;;;5.72;100.00
37764;BME280;23602;51.084;7.090;2023-02-04T08:11:02;102111.31;;;5.77;100.00
37764;BME280;23602;51.084;7.090;2023-02-04T08:13:28;102110.22;;;5.80;100.00
37764;BME280;23602;51.084;7.090;2023-02-04T08:15:53;102103.50;;;5.85;100.00
37764;BME280;23602;51.084;7.090;2023-02-04T08:18:19;102102.41;;;5.88;100.00
37764;BME280;23602;51.084;7.090;2023-02-04T08:20:44;102105.50;;;5.93;100.00
37764;BME280;23602;51.084;7.090;2023-02-04T08:23:09;102107.81;;;5.97;100.00
37764;BME280;23602;51.084;7.090;2023-02-04T08:25:35;102104.75;;;6.02;100.00
37764;BME280;23602;51.084;7.090;2023-02-04T08:28:00;102105.19;;;6.07;100.00
37764;BME280;23602;51.084;7.090;2023-02-04T08:30:25;102109.00;;;6.14;100.00
37764;BME280;23602;51.084;7.090;2023-02-04T08:32:51;102111.16;;;6.20;100.00
37764;BME280;23602;51.084;7.090;2023-02-04T08:35:16;102112.41;;;6.25;100.00
37764;BME280;23602;51.084;7.090;2023-02-04T08:37:42;102109.81;;;6.35;100.00
37764;BME280;23602;51.084;7.090;2023-02-04T08:40:07;102109.25;;;6.41;100.00
37764;BME280;23602;51.084;7.090;2023-02-04T08:42:33;102101.97;;;6.43;100.00
37764;BME280;23602;51.084;7.090;2023-02-04T08:45:01;102097.91;;;6.49;100.00
37764;BME280;23602;51.084;7.090;2023-02-04T08:47:39;102100.19;;;6.53;100.00
37764;BME280;23602;51.084;7.090;2023-02-04T08:50:05;102096.09;;;6.59;100.00
37764;BME280;23602;51.084;7.090;2023-02-04T08:52:33;102096.84;;;6.70;100.00
37764;BME280;23602;51.084;7.090;2023-02-04T08:55:26;102089.72;;;6.80;100.00
37764;BME280;23602;51.084;7.090;2023-02-04T08:57:52;102087.88;;;6.81;100.00
37764;BME280;23602;51.084;7.090;2023-02-04T09:00:23;102079.13;;;6.79;100.00
37764;BME280;23602;51.084;7.090;2023-02-04T09:02:51;102079.28;;;6.77;100.00
37764;BME280;23602;51.084;7.090;2023-02-04T09:05:17;102080.56;;;6.83;100.00
37764;BME280;23602;51.084;7.090;2023-02-04T09:07:42;102081.16;;;6.96;100.00
37764;BME280;23602;51.084;7.090;2023-02-04T09:10:10;102088.75;;;7.00;100.00
37764;BME280;23602;51.084;7.090;2023-02-04T09:12:35;102095.81;;;7.11;100.00
37764;BME280;23602;51.084;7.090;2023-02-04T09:15:00;102086.50;;;7.25;100.00
37764;BME280;23602;51.084;7.090;2023-02-04T09:17:48;102090.44;;;7.30;100.00
37764;BME280;23602;51.084;7.090;2023-02-04T09:20:12;102090.31;;;7.32;100.00
37764;BME280;23602;51.084;7.090;2023-02-04T09:22:38;102087.63;;;7.41;100.00
37764;BME280;23602;51.084;7.090;2023-02-04T09:25:03;102087.50;;;7.52;100.00
37764;BME280;23602;51.084;7.090;2023-02-04T09:27:29;102084.50;;;7.55;100.00
37764;BME280;23602;51.084;7.090;2023-02-04T09:29:54;102082.81;;;7.45;100.00
37764;BME280;23602;51.084;7.090;2023-02-04T09:32:22;102082.28;;;7.51;100.00
37764;BME280;23602;51.084;7.090;2023-02-04T09:34:50;102082.97;;;7.53;100.00
37764;BME280;23602;51.084;7.090;2023-02-04T09:37:15;102082.84;;;7.54;100.00
37764;BME280;23602;51.084;7.090;2023-02-04T09:39:41;102085.63;;;7.53;100.00
37764;BME280;23602;51.084;7.090;2023-02-04T09:42:07;102082.97;;;7.53;100.00
37764;BME280;23602;51.084;7.090;2023-02-04T09:44:35;102084.25;;;7.49;100.00
37764;BME280;23602;51.084;7.090;2023-02-04T09:47:19;102089.59;;;7.58;100.00
37764;BME280;23602;51.084;7.090;2023-02-04T09:49:51;102086.50;;;7.53;100.00
37764;BME280;23602;51.084;7.090;2023-02-04T09:52:20;102082.38;;;7.69;100.00
37764;BME280;23602;51.084;7.090;2023-02-04T09:54:54;102079.00;;;7.76;100.00
37764;BME280;23602;51.084;7.090;2023-02-04T09:57:24;102070.41;;;7.82;100.00
37764;BME280;23602;51.084;7.090;2023-02-04T09:59:54;102071.53;;;7.80;100.00
37764;BME280;23602;51.084;7.090;2023-02-04T10:02:29;102080.09;;;7.83;100.00
37764;BME280;23602;51.084;7.090;2023-02-04T10:04:55;102084.31;;;7.86;100.00
37764;BME280;23602;51.084;7.090;2023-02-04T10:07:22;102073.63;;;7.76;100.00
37764;BME280;23602;51.084;7.090;2023-02-04T10:09:49;102079.00;;;7.76;100.00
37764;BME280;23602;51.084;7.090;2023-02-04T10:12:33;102083.66;;;7.74;100.00
37764;BME280;23602;51.084;7.090;2023-02-04T10:14:59;102090.09;;;7.81;100.00
37764;BME280;23602;51.084;7.090;2023-02-04T10:17:27;102094.31;;;7.84;100.00
37764;BME280;23602;51.084;7.090;2023-02-04T10:19:53;102087.56;;;7.89;100.00
37764;BME280;23602;51.084;7.090;2023-02-04T10:22:19;102085.28;;;7.94;100.00
37764;BME280;23602;51.084;7.090;2023-02-04T10:24:45;102083.31;;;7.96;100.00
37764;BME280;23602;51.084;7.090;2023-02-04T10:27:13;102085.53;;;8.01;100.00
37764;BME280;23602;51.084;7.090;2023-02-04T10:29:54;102078.38;;;7.92;100.00
37764;BME280;23602;51.084;7.090;2023-02-04T10:32:24;102081.47;;;7.97;100.00
37764;BME280;23602;51.084;7.090;2023-02-04T10:34:55;102081.59;;;8.05;100.00
37764;BME280;23602;51.084;7.090;2023-02-04T10:37:31;102080.69;;;8.14;100.00
37764;BME280;23602;51.084;7.090;2023-02-04T10:39:59;102079.56;;;8.26;100.00
37764;BME280;23602;51.084;7.090;2023-02-04T10:43:05;102072.78;;;8.32;100.00
37764;BME280;23602;51.084;7.090;2023-02-04T10:45:53;102066.03;;;8.27;100.00
37764;BME280;23602;51.084;7.090;2023-02-04T10:51:45;102059.25;;;8.33;100.00
37764;BME280;23602;51.084;7.090;2023-02-04T10:57:44;102068.38;;;8.40;100.00
37764;BME280;23602;51.084;7.090;2023-02-04T11:00:30;102063.97;;;8.49;100.00
37764;BME280;23602;51.084;7.090;2023-02-04T11:02:57;102060.94;;;8.24;100.00
37764;BME280;23602;51.084;7.090;2023-02-04T11:05:24;102064.84;;;8.40;100.00
37764;BME280;23602;51.084;7.090;2023-02-04T11:07:53;102063.06;;;8.58;100.00
37764;BME280;23602;51.084;7.090;2023-02-04T11:10:22;102064.38;;;8.71;100.00
37764;BME280;23602;51.084;7.090;2023-02-04T11:18:12;102068.88;;;8.53;100.00
37764;BME280;23602;51.084;7.090;2023-02-04T11:20:41;102067.28;;;8.23;100.00
37764;BME280;23602;51.084;7.090;2023-02-04T11:23:13;102070.09;;;8.32;100.00
37764;BME280;23602;51.084;7.090;2023-02-04T11:25:39;102069.06;;;8.42;100.00
37764;BME280;23602;51.084;7.090;2023-02-04T11:28:21;102071.84;;;8.50;100.00
37764;BME280;23602;51.084;7.090;2023-02-04T11:33:42;102085.69;;;8.46;100.00
37764;BME280;23602;51.084;7.090;2023-02-04T11:36:08;102078.78;;;8.43;100.00
37764;BME280;23602;51.084;7.090;2023-02-04T11:38:35;102077.53;;;8.38;100.00
37764;BME280;23602;51.084;7.090;2023-02-04T11:41:03;102078.31;;;8.20;100.00
37764;BME280;23602;51.084;7.090;2023-02-04T11:43:32;102078.97;;;7.95;100.00
37764;BME280;23602;51.084;7.090;2023-02-04T11:46:16;102086.25;;;7.93;100.00
37764;BME280;23602;51.084;7.090;2023-02-04T11:48:44;102089.91;;;8.02;100.00
37764;BME280;23602;51.084;7.090;2023-02-04T11:51:10;102084.22;;;8.14;100.00
37764;BME280;23602;51.084;7.090;2023-02-04T11:53:38;102082.16;;;8.08;100.00
37764;BME280;23602;51.084;7.090;2023-02-04T11:56:13;102086.66;;;7.98;100.00
37764;BME280;23602;51.084;7.090;2023-02-04T11:58:43;102083.41;;;8.04;100.00
37764;BME280;23602;51.084;7.090;2023-02-04T12:01:15;102089.69;;;8.32;100.00
37764;BME280;23602;51.084;7.090;2023-02-04T12:03:44;102081.97;;;8.19;100.00
37764;BME280;23602;51.084;7.090;2023-02-04T12:06:19;102073.16;;;8.37;100.00
37764;BME280;23602;51.084;7.090;2023-02-04T12:08:44;102072.78;;;8.22;100.00
37764;BME280;23602;51.084;7.090;2023-02-04T12:11:10;102074.19;;;8.36;100.00
37764;BME280;23602;51.084;7.090;2023-02-04T12:16:52;102067.84;;;8.54;100.00
37764;BME280;23602;51.084;7.090;2023-02-04T12:19:18;102073.03;;;8.65;100.00
37764;BME280;23602;51.084;7.090;2023-02-04T12:21:43;102079.91;;;8.68;100.00
37764;BME280;23602;51.084;7.090;2023-02-04T12:24:09;102069.63;;;8.46;100.00
37764;BME280;23602;51.084;7.090;2023-02-04T12:26:44;102067.97;;;8.62;100.00
37764;BME280;23602;51.084;7.090;2023-02-04T12:29:11;102077.03;;;8.52;100.00
37764;BME280;23602;51.084;7.090;2023-02-04T12:31:37;102078.28;;;8.57;100.00
37764;BME280;23602;51.084;7.090;2023-02-04T12:34:05;102074.72;;;8.66;100.00
37764;BME280;23602;51.084;7.090;2023-02-04T12:36:32;102072.88;;;8.67;100.00
37764;BME280;23602;51.084;7.090;2023-02-04T12:38:58;102077.63;;;8.73;100.00
37764;BME280;23602;51.084;7.090;2023-02-04T12:41:25;102067.13;;;8.62;100.00
37764;BME280;23602;51.084;7.090;2023-02-04T12:43:55;102076.72;;;8.64;100.00
37764;BME280;23602;51.084;7.090;2023-02-04T12:46:23;102067.28;;;8.78;100.00
37764;BME280;23602;51.084;7.090;2023-02-04T12:48:48;102075.59;;;8.84;100.00
37764;BME280;23602;51.084;7.090;2023-02-04T12:51:13;102079.81;;;8.87;100.00
37764;BME280;23602;51.084;7.090;2023-02-04T12:53:41;102074.69;;;8.94;100.00
37764;BME280;23602;51.084;7.090;2023-02-04T12:56:07;102076.81;;;8.90;100.00
37764;BME280;23602;51.084;7.090;2023-02-04T12:58:37;102071.22;;;9.01;100.00
37764;BME280;23602;51.084;7.090;2023-02-04T13:01:05;102068.06;;;8.88;100.00
37764;BME280;23602;51.084;7.090;2023-02-04T13:03:31;102070.53;;;8.99;100.00
37764;BME280;23602;51.084;7.090;2023-02-04T13:06:17;102067.78;;;9.09;100.00
37764;BME280;23602;51.084;7.090;2023-02-04T13:08:59;102068.41;;;9.20;100.00
37764;BME280;23602;51.084;7.090;2023-02-04T13:11:30;102067.47;;;9.29;100.00
37764;BME280;23602;51.084;7.090;2023-02-04T13:13:55;102058.28;;;9.32;100.00
37764;BME280;23602;51.084;7.090;2023-02-04T13:16:26;102063.81;;;9.30;100.00
37764;BME280;23602;51.084;7.090;2023-02-04T13:18:59;102068.72;;;9.17;100.00